sensor_id;sensor_type;location;lat;lon;timestamp;P1;durP1;ratioP1;P2;durP2;ratioP2
34204;SDS011;20471;49.680;20.074;2022-10-16T00:01:26;20.00;;;15.25;;
34204;SDS011;20471;49.680;20.074;2022-10-16T00:03:55;17.27;;;14.80;;
34204;SDS011;20471;49.680;20.074;2022-10-16T00:06:25;15.80;;;14.07;;
34204;SDS011;20471;49.680;20.074;2022-10-16T00:08:52;19.02;;;14.40;;
34204;SDS011;20471;49.680;20.074;2022-10-16T00:11:24;22.02;;;14.80;;
34204;SDS011;20471;49.680;20.074;2022-10-16T00:13:59;19.57;;;14.95;;
34204;SDS011;20471;49.680;20.074;2022-10-16T00:16:27;19.10;;;15.08;;
34204;SDS011;20471;49.680;20.074;2022-10-16T00:18:55;20.12;;;15.45;;
34204;SDS011;20471;49.680;20.074;2022-10-16T00:21:27;19.45;;;15.00;;
34204;SDS011;20471;49.680;20.074;2022-10-16T00:23:53;21.75;;;15.90;;
34204;SDS011;20471;49.680;20.074;2022-10-16T00:28:53;22.17;;;16.27;;
34204;SDS011;20471;49.680;20.074;2022-10-16T00:31:20;21.37;;;15.10;;
34204;SDS011;20471;49.680;20.074;2022-10-16T00:33:49;22.45;;;15.10;;
34204;SDS011;20471;49.680;20.074;2022-10-16T00:36:17;22.02;;;15.00;;
34204;SDS011;20471;49.680;20.074;2022-10-16T00:38:49;20.05;;;15.48;;
34204;SDS011;20471;49.680;20.074;2022-10-16T00:41:19;22.75;;;15.03;;
34204;SDS011;20471;49.680;20.074;2022-10-16T00:43:48;19.62;;;13.88;;
34204;SDS011;20471;49.680;20.074;2022-10-16T00:46:27;21.35;;;14.43;;
34204;SDS011;20471;49.680;20.074;2022-10-16T00:49:06;18.90;;;14.40;;
34204;SDS011;20471;49.680;20.074;2022-10-16T00:54:23;20.15;;;15.53;;
34204;SDS011;20471;49.680;20.074;2022-10-16T00:56:56;22.13;;;15.43;;
34204;SDS011;20471;49.680;20.074;2022-10-16T00:59:28;21.97;;;14.43;;
34204;SDS011;20471;49.680;20.074;2022-10-16T01:02:06;20.80;;;14.78;;
34204;SDS011;20471;49.680;20.074;2022-10-16T01:04:41;20.57;;;15.35;;
34204;SDS011;20471;49.680;20.074;2022-10-16T01:12:55;19.10;;;14.13;;
34204;SDS011;20471;49.680;20.074;2022-10-16T01:21:28;19.67;;;13.75;;
34204;SDS011;20471;49.680;20.074;2022-10-16T01:24:09;20.70;;;13.93;;
34204;SDS011;20471;49.680;20.074;2022-10-16T01:38:02;20.02;;;13.72;;
34204;SDS011;20471;49.680;20.074;2022-10-16T01:40:52;20.17;;;14.13;;
34204;SDS011;20471;49.680;20.074;2022-10-16T01:43:34;16.45;;;13.62;;
34204;SDS011;20471;49.680;20.074;2022-10-16T01:46:00;19.98;;;13.62;;
34204;SDS011;20471;49.680;20.074;2022-10-16T01:48:27;18.23;;;14.30;;
34204;SDS011;20471;49.680;20.074;2022-10-16T01:51:00;15.85;;;13.53;;
34204;SDS011;20471;49.680;20.074;2022-10-16T01:53:33;19.45;;;14.90;;
34204;SDS011;20471;49.680;20.074;2022-10-16T01:56:00;18.42;;;14.18;;
34204;SDS011;20471;49.680;20.074;2022-10-16T01:58:31;17.75;;;13.78;;
34204;SDS011;20471;49.680;20.074;2022-10-16T02:01:02;20.90;;;14.67;;
34204;SDS011;20471;49.680;20.074;2022-10-16T02:03:30;21.60;;;15.15;;
34204;SDS011;20471;49.680;20.074;2022-10-16T02:06:00;15.18;;;13.58;;
34204;SDS011;20471;49.680;20.074;2022-10-16T02:08:27;17.50;;;14.10;;
34204;SDS011;20471;49.680;20.074;2022-10-16T02:10:56;20.68;;;14.18;;
34204;SDS011;20471;49.680;20.074;2022-10-16T02:18:44;20.85;;;13.78;;
34204;SDS011;20471;49.680;20.074;2022-10-16T02:21:15;17.95;;;13.38;;
34204;SDS011;20471;49.680;20.074;2022-10-16T02:23:48;18.30;;;13.58;;
34204;SDS011;20471;49.680;20.074;2022-10-16T02:26:38;17.57;;;13.95;;
34204;SDS011;20471;49.680;20.074;2022-10-16T02:29:11;19.55;;;14.35;;
34204;SDS011;20471;49.680;20.074;2022-10-16T02:31:41;19.85;;;14.00;;
34204;SDS011;20471;49.680;20.074;2022-10-16T02:34:12;16.35;;;13.00;;
34204;SDS011;20471;49.680;20.074;2022-10-16T02:36:41;21.48;;;13.93;;
34204;SDS011;20471;49.680;20.074;2022-10-16T02:39:09;17.07;;;13.18;;
34204;SDS011;20471;49.680;20.074;2022-10-16T02:41:36;19.90;;;13.28;;
34204;SDS011;20471;49.680;20.074;2022-10-16T02:44:03;22.02;;;13.78;;
34204;SDS011;20471;49.680;20.074;2022-10-16T02:46:30;20.25;;;14.05;;
34204;SDS011;20471;49.680;20.074;2022-10-16T02:48:56;17.20;;;13.05;;
34204;SDS011;20471;49.680;20.074;2022-10-16T02:51:23;20.68;;;13.38;;
34204;SDS011;20471;49.680;20.074;2022-10-16T02:53:49;18.10;;;13.53;;
34204;SDS011;20471;49.680;20.074;2022-10-16T02:56:16;17.98;;;13.70;;
34204;SDS011;20471;49.680;20.074;2022-10-16T02:58:43;21.52;;;14.07;;
34204;SDS011;20471;49.680;20.074;2022-10-16T03:01:09;15.75;;;12.35;;
34204;SDS011;20471;49.680;20.074;2022-10-16T03:03:38;20.17;;;13.50;;
34204;SDS011;20471;49.680;20.074;2022-10-16T03:06:05;15.75;;;13.58;;
34204;SDS011;20471;49.680;20.074;2022-10-16T03:08:31;18.48;;;13.28;;
34204;SDS011;20471;49.680;20.074;2022-10-16T03:10:58;15.13;;;12.35;;
34204;SDS011;20471;49.680;20.074;2022-10-16T03:13:25;21.90;;;12.47;;
34204;SDS011;20471;49.680;20.074;2022-10-16T03:15:51;13.55;;;12.03;;
34204;SDS011;20471;49.680;20.074;2022-10-16T03:18:18;16.62;;;12.33;;
34204;SDS011;20471;49.680;20.074;2022-10-16T03:20:44;17.55;;;12.55;;
34204;SDS011;20471;49.680;20.074;2022-10-16T03:23:11;19.30;;;12.73;;
34204;SDS011;20471;49.680;20.074;2022-10-16T03:25:37;16.65;;;12.55;;
34204;SDS011;20471;49.680;20.074;2022-10-16T03:28:04;15.85;;;11.38;;
34204;SDS011;20471;49.680;20.074;2022-10-16T03:30:31;16.87;;;12.37;;
34204;SDS011;20471;49.680;20.074;2022-10-16T03:32:58;15.53;;;12.00;;
34204;SDS011;20471;49.680;20.074;2022-10-16T03:35:24;18.27;;;13.45;;
34204;SDS011;20471;49.680;20.074;2022-10-16T03:37:51;16.23;;;12.07;;
34204;SDS011;20471;49.680;20.074;2022-10-16T03:40:18;14.25;;;12.15;;
34204;SDS011;20471;49.680;20.074;2022-10-16T03:42:45;17.87;;;12.23;;
34204;SDS011;20471;49.680;20.074;2022-10-16T03:45:12;15.55;;;11.38;;
34204;SDS011;20471;49.680;20.074;2022-10-16T03:47:38;17.20;;;12.18;;
34204;SDS011;20471;49.680;20.074;2022-10-16T03:50:05;16.87;;;12.05;;
34204;SDS011;20471;49.680;20.074;2022-10-16T03:52:33;18.42;;;12.68;;
34204;SDS011;20471;49.680;20.074;2022-10-16T03:54:59;20.23;;;12.50;;
34204;SDS011;20471;49.680;20.074;2022-10-16T03:57:26;15.78;;;11.80;;
34204;SDS011;20471;49.680;20.074;2022-10-16T03:59:52;17.00;;;11.93;;
34204;SDS011;20471;49.680;20.074;2022-10-16T04:02:19;16.70;;;12.28;;
34204;SDS011;20471;49.680;20.074;2022-10-16T04:04:45;16.35;;;12.50;;
34204;SDS011;20471;49.680;20.074;2022-10-16T04:07:12;16.05;;;11.73;;
34204;SDS011;20471;49.680;20.074;2022-10-16T04:09:38;16.00;;;12.53;;
34204;SDS011;20471;49.680;20.074;2022-10-16T04:12:05;14.25;;;11.30;;
34204;SDS011;20471;49.680;20.074;2022-10-16T04:14:32;16.30;;;11.45;;
34204;SDS011;20471;49.680;20.074;2022-10-16T04:16:58;18.95;;;12.50;;
34204;SDS011;20471;49.680;20.074;2022-10-16T04:19:25;15.38;;;12.10;;
34204;SDS011;20471;49.680;20.074;2022-10-16T04:21:51;16.97;;;11.75;;
34204;SDS011;20471;49.680;20.074;2022-10-16T04:24:18;15.05;;;12.03;;
34204;SDS011;20471;49.680;20.074;2022-10-16T04:26:45;16.65;;;11.73;;
34204;SDS011;20471;49.680;20.074;2022-10-16T04:29:11;16.35;;;12.13;;
34204;SDS011;20471;49.680;20.074;2022-10-16T04:31:38;14.30;;;11.45;;
34204;SDS011;20471;49.680;20.074;2022-10-16T04:34:04;15.70;;;11.33;;
34204;SDS011;20471;49.680;20.074;2022-10-16T04:36:31;18.10;;;12.18;;
34204;SDS011;20471;49.680;20.074;2022-10-16T04:38:58;15.03;;;12.28;;
34204;SDS011;20471;49.680;20.074;2022-10-16T04:41:25;17.02;;;12.13;;
34204;SDS011;20471;49.680;20.074;2022-10-16T04:43:51;16.10;;;12.40;;
34204;SDS011;20471;49.680;20.074;2022-10-16T04:46:18;15.70;;;11.78;;
34204;SDS011;20471;49.680;20.074;2022-10-16T04:48:44;17.80;;;11.83;;
34204;SDS011;20471;49.680;20.074;2022-10-16T04:51:12;13.98;;;11.83;;
34204;SDS011;20471;49.680;20.074;2022-10-16T04:53:38;16.42;;;12.35;;
34204;SDS011;20471;49.680;20.074;2022-10-16T04:56:05;15.90;;;11.63;;
34204;SDS011;20471;49.680;20.074;2022-10-16T04:58:32;15.03;;;11.83;;
34204;SDS011;20471;49.680;20.074;2022-10-16T05:00:58;16.50;;;12.10;;
34204;SDS011;20471;49.680;20.074;2022-10-16T05:03:25;19.70;;;11.20;;
34204;SDS011;20471;49.680;20.074;2022-10-16T05:05:52;14.43;;;12.07;;
34204;SDS011;20471;49.680;20.074;2022-10-16T05:08:19;16.20;;;11.45;;
34204;SDS011;20471;49.680;20.074;2022-10-16T05:10:46;14.65;;;11.85;;
34204;SDS011;20471;49.680;20.074;2022-10-16T05:13:12;19.30;;;12.85;;
34204;SDS011;20471;49.680;20.074;2022-10-16T05:15:39;14.85;;;11.75;;
34204;SDS011;20471;49.680;20.074;2022-10-16T05:18:06;16.12;;;12.15;;
34204;SDS011;20471;49.680;20.074;2022-10-16T05:20:32;15.60;;;12.50;;
34204;SDS011;20471;49.680;20.074;2022-10-16T05:22:59;16.27;;;12.60;;
34204;SDS011;20471;49.680;20.074;2022-10-16T05:25:25;20.30;;;12.35;;
34204;SDS011;20471;49.680;20.074;2022-10-16T05:27:52;16.35;;;12.68;;
34204;SDS011;20471;49.680;20.074;2022-10-16T05:30:19;22.42;;;11.00;;
34204;SDS011;20471;49.680;20.074;2022-10-16T05:32:46;18.52;;;12.93;;
34204;SDS011;20471;49.680;20.074;2022-10-16T05:35:14;14.45;;;12.18;;
34204;SDS011;20471;49.680;20.074;2022-10-16T05:37:41;13.75;;;12.03;;
34204;SDS011;20471;49.680;20.074;2022-10-16T05:40:08;18.27;;;13.40;;
34204;SDS011;20471;49.680;20.074;2022-10-16T05:42:36;20.43;;;15.75;;
34204;SDS011;20471;49.680;20.074;2022-10-16T05:45:04;27.32;;;19.48;;
34204;SDS011;20471;49.680;20.074;2022-10-16T05:47:33;24.60;;;19.17;;
34204;SDS011;20471;49.680;20.074;2022-10-16T05:49:59;25.85;;;18.57;;
34204;SDS011;20471;49.680;20.074;2022-10-16T05:52:27;39.73;;;27.17;;
34204;SDS011;20471;49.680;20.074;2022-10-16T05:54:53;42.25;;;28.32;;
34204;SDS011;20471;49.680;20.074;2022-10-16T05:57:20;30.60;;;23.40;;
34204;SDS011;20471;49.680;20.074;2022-10-16T05:59:47;28.05;;;16.90;;
34204;SDS011;20471;49.680;20.074;2022-10-16T06:02:14;19.20;;;14.28;;
34204;SDS011;20471;49.680;20.074;2022-10-16T06:04:40;16.97;;;13.28;;
34204;SDS011;20471;49.680;20.074;2022-10-16T06:07:07;15.88;;;12.25;;
34204;SDS011;20471;49.680;20.074;2022-10-16T06:09:34;14.13;;;11.95;;
34204;SDS011;20471;49.680;20.074;2022-10-16T06:12:00;16.90;;;12.43;;
34204;SDS011;20471;49.680;20.074;2022-10-16T06:14:27;14.78;;;11.50;;
34204;SDS011;20471;49.680;20.074;2022-10-16T06:16:53;16.70;;;12.28;;
34204;SDS011;20471;49.680;20.074;2022-10-16T06:19:20;16.40;;;12.58;;
34204;SDS011;20471;49.680;20.074;2022-10-16T06:21:48;14.80;;;11.25;;
34204;SDS011;20471;49.680;20.074;2022-10-16T06:24:14;13.93;;;11.28;;
34204;SDS011;20471;49.680;20.074;2022-10-16T06:26:41;20.10;;;11.90;;
34204;SDS011;20471;49.680;20.074;2022-10-16T06:29:08;16.40;;;11.48;;
34204;SDS011;20471;49.680;20.074;2022-10-16T06:31:34;16.35;;;12.10;;
34204;SDS011;20471;49.680;20.074;2022-10-16T06:34:01;13.22;;;11.22;;
34204;SDS011;20471;49.680;20.074;2022-10-16T06:36:29;14.40;;;11.75;;
34204;SDS011;20471;49.680;20.074;2022-10-16T06:38:56;15.55;;;11.85;;
34204;SDS011;20471;49.680;20.074;2022-10-16T06:41:23;22.90;;;13.25;;
34204;SDS011;20471;49.680;20.074;2022-10-16T06:43:49;14.53;;;12.05;;
34204;SDS011;20471;49.680;20.074;2022-10-16T06:46:18;19.95;;;11.73;;
34204;SDS011;20471;49.680;20.074;2022-10-16T06:48:48;16.10;;;11.83;;
34204;SDS011;20471;49.680;20.074;2022-10-16T06:51:19;17.45;;;12.33;;
34204;SDS011;20471;49.680;20.074;2022-10-16T06:53:45;13.58;;;10.82;;
34204;SDS011;20471;49.680;20.074;2022-10-16T06:58:50;15.28;;;11.95;;
34204;SDS011;20471;49.680;20.074;2022-10-16T07:01:18;17.77;;;11.90;;
34204;SDS011;20471;49.680;20.074;2022-10-16T07:03:48;14.93;;;11.12;;
34204;SDS011;20471;49.680;20.074;2022-10-16T07:06:15;15.53;;;12.10;;
34204;SDS011;20471;49.680;20.074;2022-10-16T07:08:45;15.78;;;12.45;;
34204;SDS011;20471;49.680;20.074;2022-10-16T07:11:14;14.55;;;11.15;;
34204;SDS011;20471;49.680;20.074;2022-10-16T07:13:44;17.37;;;11.95;;
34204;SDS011;20471;49.680;20.074;2022-10-16T07:16:19;16.48;;;11.85;;
34204;SDS011;20471;49.680;20.074;2022-10-16T07:18:49;17.75;;;12.30;;
34204;SDS011;20471;49.680;20.074;2022-10-16T07:21:18;16.80;;;11.28;;
34204;SDS011;20471;49.680;20.074;2022-10-16T07:23:52;18.52;;;12.90;;
34204;SDS011;20471;49.680;20.074;2022-10-16T07:26:21;15.00;;;11.18;;
34204;SDS011;20471;49.680;20.074;2022-10-16T07:28:48;17.90;;;11.57;;
34204;SDS011;20471;49.680;20.074;2022-10-16T07:31:16;16.45;;;11.22;;
34204;SDS011;20471;49.680;20.074;2022-10-16T07:33:45;15.72;;;10.75;;
34204;SDS011;20471;49.680;20.074;2022-10-16T07:36:14;17.90;;;12.03;;
34204;SDS011;20471;49.680;20.074;2022-10-16T07:38:43;16.35;;;10.93;;
34204;SDS011;20471;49.680;20.074;2022-10-16T07:41:11;16.07;;;11.70;;
34204;SDS011;20471;49.680;20.074;2022-10-16T07:43:44;16.60;;;10.78;;
34204;SDS011;20471;49.680;20.074;2022-10-16T07:46:13;16.80;;;11.25;;
34204;SDS011;20471;49.680;20.074;2022-10-16T07:48:40;16.07;;;10.53;;
34204;SDS011;20471;49.680;20.074;2022-10-16T07:51:09;13.58;;;10.53;;
34204;SDS011;20471;49.680;20.074;2022-10-16T07:53:35;18.98;;;10.53;;
34204;SDS011;20471;49.680;20.074;2022-10-16T07:56:03;14.60;;;10.68;;
34204;SDS011;20471;49.680;20.074;2022-10-16T07:58:32;14.85;;;10.90;;
34204;SDS011;20471;49.680;20.074;2022-10-16T08:01:03;18.70;;;10.70;;
34204;SDS011;20471;49.680;20.074;2022-10-16T08:03:32;11.50;;;9.75;;
34204;SDS011;20471;49.680;20.074;2022-10-16T08:05:59;12.15;;;9.25;;
34204;SDS011;20471;49.680;20.074;2022-10-16T08:08:27;12.33;;;9.73;;
34204;SDS011;20471;49.680;20.074;2022-10-16T08:10:54;11.53;;;9.68;;
34204;SDS011;20471;49.680;20.074;2022-10-16T08:13:20;14.03;;;9.60;;
34204;SDS011;20471;49.680;20.074;2022-10-16T08:15:47;13.20;;;9.30;;
34204;SDS011;20471;49.680;20.074;2022-10-16T08:18:14;12.00;;;10.05;;
34204;SDS011;20471;49.680;20.074;2022-10-16T08:20:42;13.58;;;9.33;;
34204;SDS011;20471;49.680;20.074;2022-10-16T08:23:09;13.48;;;10.30;;
34204;SDS011;20471;49.680;20.074;2022-10-16T08:25:39;11.78;;;8.85;;
34204;SDS011;20471;49.680;20.074;2022-10-16T08:28:07;11.95;;;7.92;;
34204;SDS011;20471;49.680;20.074;2022-10-16T08:30:36;11.55;;;8.75;;
34204;SDS011;20471;49.680;20.074;2022-10-16T08:33:03;13.18;;;9.20;;
34204;SDS011;20471;49.680;20.074;2022-10-16T08:35:30;15.72;;;8.90;;
34204;SDS011;20471;49.680;20.074;2022-10-16T08:37:56;11.70;;;8.73;;
34204;SDS011;20471;49.680;20.074;2022-10-16T08:40:30;14.18;;;9.05;;
34204;SDS011;20471;49.680;20.074;2022-10-16T08:43:06;11.83;;;8.40;;
34204;SDS011;20471;49.680;20.074;2022-10-16T08:45:49;9.65;;;7.53;;
34204;SDS011;20471;49.680;20.074;2022-10-16T08:51:07;11.25;;;6.97;;
34204;SDS011;20471;49.680;20.074;2022-10-16T08:54:01;13.30;;;8.03;;
34204;SDS011;20471;49.680;20.074;2022-10-16T08:56:12;10.55;;;8.60;;
34204;SDS011;20471;49.680;20.074;2022-10-16T08:58:39;10.35;;;7.30;;
34204;SDS011;20471;49.680;20.074;2022-10-16T09:01:16;9.38;;;7.55;;
34204;SDS011;20471;49.680;20.074;2022-10-16T09:12:31;13.87;;;9.07;;
34204;SDS011;20471;49.680;20.074;2022-10-16T09:15:16;11.88;;;8.48;;
34204;SDS011;20471;49.680;20.074;2022-10-16T09:17:55;10.80;;;8.13;;
34204;SDS011;20471;49.680;20.074;2022-10-16T09:23:27;10.30;;;8.28;;
34204;SDS011;20471;49.680;20.074;2022-10-16T09:25:56;10.50;;;7.78;;
34204;SDS011;20471;49.680;20.074;2022-10-16T09:28:24;13.40;;;8.35;;
34204;SDS011;20471;49.680;20.074;2022-10-16T09:30:51;11.90;;;8.03;;
34204;SDS011;20471;49.680;20.074;2022-10-16T09:33:19;9.98;;;7.80;;
34204;SDS011;20471;49.680;20.074;2022-10-16T09:35:53;13.65;;;7.80;;
34204;SDS011;20471;49.680;20.074;2022-10-16T09:40:58;8.40;;;7.30;;
34204;SDS011;20471;49.680;20.074;2022-10-16T09:46:19;11.45;;;8.05;;
34204;SDS011;20471;49.680;20.074;2022-10-16T09:48:49;10.63;;;7.35;;
34204;SDS011;20471;49.680;20.074;2022-10-16T09:51:23;11.00;;;7.78;;
34204;SDS011;20471;49.680;20.074;2022-10-16T09:54:02;12.60;;;8.05;;
34204;SDS011;20471;49.680;20.074;2022-10-16T09:56:38;9.75;;;8.10;;
34204;SDS011;20471;49.680;20.074;2022-10-16T09:59:16;10.10;;;7.80;;
34204;SDS011;20471;49.680;20.074;2022-10-16T10:01:43;8.75;;;7.42;;
34204;SDS011;20471;49.680;20.074;2022-10-16T10:04:12;10.45;;;8.08;;
34204;SDS011;20471;49.680;20.074;2022-10-16T10:06:49;9.25;;;7.33;;
34204;SDS011;20471;49.680;20.074;2022-10-16T10:09:22;11.18;;;7.30;;
34204;SDS011;20471;49.680;20.074;2022-10-16T10:11:59;13.22;;;7.95;;
34204;SDS011;20471;49.680;20.074;2022-10-16T10:19:54;9.85;;;7.42;;
34204;SDS011;20471;49.680;20.074;2022-10-16T10:22:27;8.60;;;7.12;;
34204;SDS011;20471;49.680;20.074;2022-10-16T10:31:04;9.50;;;7.58;;
34204;SDS011;20471;49.680;20.074;2022-10-16T10:39:19;10.55;;;7.67;;
34204;SDS011;20471;49.680;20.074;2022-10-16T10:47:50;8.53;;;6.85;;
34204;SDS011;20471;49.680;20.074;2022-10-16T10:50:27;8.30;;;6.35;;
34204;SDS011;20471;49.680;20.074;2022-10-16T10:53:29;8.85;;;7.08;;
34204;SDS011;20471;49.680;20.074;2022-10-16T10:59:49;8.65;;;5.97;;
34204;SDS011;20471;49.680;20.074;2022-10-16T11:01:54;11.38;;;7.15;;
34204;SDS011;20471;49.680;20.074;2022-10-16T11:07:33;9.38;;;6.60;;
34204;SDS011;20471;49.680;20.074;2022-10-16T11:10:12;9.50;;;6.42;;
34204;SDS011;20471;49.680;20.074;2022-10-16T11:12:47;9.25;;;6.47;;
34204;SDS011;20471;49.680;20.074;2022-10-16T11:15:19;8.33;;;6.72;;
34204;SDS011;20471;49.680;20.074;2022-10-16T11:17:54;9.40;;;7.20;;
34204;SDS011;20471;49.680;20.074;2022-10-16T11:20:42;7.10;;;6.10;;
34204;SDS011;20471;49.680;20.074;2022-10-16T11:23:24;6.80;;;6.10;;
34204;SDS011;20471;49.680;20.074;2022-10-16T11:25:57;7.45;;;6.58;;
34204;SDS011;20471;49.680;20.074;2022-10-16T11:28:29;7.08;;;6.30;;
34204;SDS011;20471;49.680;20.074;2022-10-16T11:31:18;8.70;;;6.05;;
34204;SDS011;20471;49.680;20.074;2022-10-16T11:37:08;9.45;;;6.15;;
34204;SDS011;20471;49.680;20.074;2022-10-16T11:39:47;8.75;;;6.65;;
34204;SDS011;20471;49.680;20.074;2022-10-16T11:47:51;11.12;;;6.60;;
34204;SDS011;20471;49.680;20.074;2022-10-16T11:50:45;10.18;;;6.85;;
34204;SDS011;20471;49.680;20.074;2022-10-16T11:53:35;9.53;;;6.30;;
34204;SDS011;20471;49.680;20.074;2022-10-16T11:56:16;10.45;;;6.65;;
34204;SDS011;20471;49.680;20.074;2022-10-16T11:58:52;9.93;;;7.30;;
34204;SDS011;20471;49.680;20.074;2022-10-16T12:07:02;10.40;;;6.72;;
34204;SDS011;20471;49.680;20.074;2022-10-16T12:09:37;9.63;;;6.85;;
34204;SDS011;20471;49.680;20.074;2022-10-16T12:15:18;8.48;;;6.35;;
34204;SDS011;20471;49.680;20.074;2022-10-16T12:17:50;9.35;;;6.42;;
34204;SDS011;20471;49.680;20.074;2022-10-16T12:20:22;7.83;;;6.55;;
34204;SDS011;20471;49.680;20.074;2022-10-16T12:25:30;10.10;;;6.90;;
34204;SDS011;20471;49.680;20.074;2022-10-16T12:28:00;7.67;;;6.45;;
34204;SDS011;20471;49.680;20.074;2022-10-16T12:30:52;8.98;;;6.42;;
34204;SDS011;20471;49.680;20.074;2022-10-16T12:33:27;9.75;;;6.90;;
34204;SDS011;20471;49.680;20.074;2022-10-16T12:35:57;8.68;;;6.35;;
34204;SDS011;20471;49.680;20.074;2022-10-16T12:38:37;8.40;;;6.12;;
34204;SDS011;20471;49.680;20.074;2022-10-16T12:41:23;7.92;;;6.58;;
34204;SDS011;20471;49.680;20.074;2022-10-16T12:44:00;7.33;;;6.33;;
34204;SDS011;20471;49.680;20.074;2022-10-16T12:51:56;11.12;;;7.55;;
34204;SDS011;20471;49.680;20.074;2022-10-16T12:54:30;8.85;;;6.78;;
34204;SDS011;20471;49.680;20.074;2022-10-16T12:57:18;13.20;;;6.53;;
34204;SDS011;20471;49.680;20.074;2022-10-16T13:05:35;9.50;;;6.28;;
34204;SDS011;20471;49.680;20.074;2022-10-16T13:25:56;7.72;;;6.30;;
34204;SDS011;20471;49.680;20.074;2022-10-16T13:28:33;8.25;;;6.47;;
34204;SDS011;20471;49.680;20.074;2022-10-16T13:31:01;10.90;;;6.70;;
34204;SDS011;20471;49.680;20.074;2022-10-16T13:33:33;9.75;;;6.72;;
34204;SDS011;20471;49.680;20.074;2022-10-16T13:36:05;7.90;;;5.83;;
34204;SDS011;20471;49.680;20.074;2022-10-16T13:38:34;10.40;;;6.67;;
34204;SDS011;20471;49.680;20.074;2022-10-16T13:41:03;8.80;;;6.80;;
34204;SDS011;20471;49.680;20.074;2022-10-16T13:46:14;10.15;;;6.20;;
34204;SDS011;20471;49.680;20.074;2022-10-16T13:48:43;10.55;;;7.08;;
34204;SDS011;20471;49.680;20.074;2022-10-16T13:51:23;10.50;;;6.53;;
34204;SDS011;20471;49.680;20.074;2022-10-16T13:53:52;8.08;;;6.60;;
34204;SDS011;20471;49.680;20.074;2022-10-16T13:56:21;9.83;;;6.72;;
34204;SDS011;20471;49.680;20.074;2022-10-16T13:59:02;9.75;;;6.70;;
34204;SDS011;20471;49.680;20.074;2022-10-16T14:01:50;8.45;;;6.45;;
34204;SDS011;20471;49.680;20.074;2022-10-16T14:04:09;9.93;;;6.70;;
34204;SDS011;20471;49.680;20.074;2022-10-16T14:06:43;8.23;;;6.80;;
34204;SDS011;20471;49.680;20.074;2022-10-16T14:09:14;7.65;;;6.85;;
34204;SDS011;20471;49.680;20.074;2022-10-16T14:11:56;7.67;;;6.30;;
34204;SDS011;20471;49.680;20.074;2022-10-16T14:14:39;12.35;;;5.97;;
34204;SDS011;20471;49.680;20.074;2022-10-16T14:17:18;6.75;;;6.05;;
34204;SDS011;20471;49.680;20.074;2022-10-16T14:19:56;7.97;;;6.80;;
34204;SDS011;20471;49.680;20.074;2022-10-16T14:25:00;10.15;;;7.50;;
34204;SDS011;20471;49.680;20.074;2022-10-16T14:30:29;11.25;;;7.30;;
34204;SDS011;20471;49.680;20.074;2022-10-16T14:33:00;8.33;;;7.30;;
34204;SDS011;20471;49.680;20.074;2022-10-16T14:35:31;7.93;;;6.47;;
34204;SDS011;20471;49.680;20.074;2022-10-16T14:38:02;10.68;;;7.33;;
34204;SDS011;20471;49.680;20.074;2022-10-16T14:40:32;9.80;;;7.60;;
34204;SDS011;20471;49.680;20.074;2022-10-16T14:43:03;10.20;;;7.72;;
34204;SDS011;20471;49.680;20.074;2022-10-16T14:45:32;11.57;;;7.90;;
34204;SDS011;20471;49.680;20.074;2022-10-16T14:48:05;12.25;;;7.75;;
34204;SDS011;20471;49.680;20.074;2022-10-16T14:50:32;9.70;;;7.42;;
34204;SDS011;20471;49.680;20.074;2022-10-16T14:52:58;10.82;;;7.08;;
34204;SDS011;20471;49.680;20.074;2022-10-16T14:55:25;12.13;;;7.53;;
34204;SDS011;20471;49.680;20.074;2022-10-16T14:57:52;10.60;;;9.23;;
34204;SDS011;20471;49.680;20.074;2022-10-16T15:00:22;13.98;;;8.58;;
34204;SDS011;20471;49.680;20.074;2022-10-16T15:02:50;15.45;;;8.58;;
34204;SDS011;20471;49.680;20.074;2022-10-16T15:05:18;12.65;;;7.45;;
34204;SDS011;20471;49.680;20.074;2022-10-16T15:07:52;9.90;;;7.17;;
34204;SDS011;20471;49.680;20.074;2022-10-16T15:10:22;10.28;;;6.50;;
34204;SDS011;20471;49.680;20.074;2022-10-16T15:12:51;9.45;;;7.67;;
34204;SDS011;20471;49.680;20.074;2022-10-16T15:15:34;8.90;;;7.58;;
34204;SDS011;20471;49.680;20.074;2022-10-16T15:18:04;11.75;;;8.25;;
34204;SDS011;20471;49.680;20.074;2022-10-16T15:20:32;12.63;;;9.75;;
34204;SDS011;20471;49.680;20.074;2022-10-16T15:23:02;15.72;;;10.85;;
34204;SDS011;20471;49.680;20.074;2022-10-16T15:25:34;13.40;;;10.73;;
34204;SDS011;20471;49.680;20.074;2022-10-16T15:28:12;16.35;;;11.50;;
34204;SDS011;20471;49.680;20.074;2022-10-16T15:30:41;14.25;;;9.75;;
34204;SDS011;20471;49.680;20.074;2022-10-16T15:33:14;11.70;;;8.95;;
34204;SDS011;20471;49.680;20.074;2022-10-16T15:35:47;10.55;;;8.85;;
34204;SDS011;20471;49.680;20.074;2022-10-16T15:38:15;13.60;;;9.95;;
34204;SDS011;20471;49.680;20.074;2022-10-16T15:40:43;14.38;;;10.15;;
34204;SDS011;20471;49.680;20.074;2022-10-16T15:43:11;13.45;;;10.58;;
34204;SDS011;20471;49.680;20.074;2022-10-16T15:45:38;14.65;;;10.95;;
34204;SDS011;20471;49.680;20.074;2022-10-16T15:48:05;15.70;;;10.82;;
34204;SDS011;20471;49.680;20.074;2022-10-16T15:50:33;13.62;;;9.25;;
34204;SDS011;20471;49.680;20.074;2022-10-16T15:53:04;18.42;;;10.15;;
34204;SDS011;20471;49.680;20.074;2022-10-16T15:55:31;14.55;;;9.13;;
34204;SDS011;20471;49.680;20.074;2022-10-16T15:57:57;12.63;;;8.90;;
34204;SDS011;20471;49.680;20.074;2022-10-16T16:00:24;12.58;;;8.43;;
34204;SDS011;20471;49.680;20.074;2022-10-16T16:02:51;13.85;;;9.23;;
34204;SDS011;20471;49.680;20.074;2022-10-16T16:05:20;11.28;;;9.43;;
34204;SDS011;20471;49.680;20.074;2022-10-16T16:07:48;12.93;;;9.75;;
34204;SDS011;20471;49.680;20.074;2022-10-16T16:10:16;11.88;;;9.78;;
34204;SDS011;20471;49.680;20.074;2022-10-16T16:12:45;13.53;;;10.15;;
34204;SDS011;20471;49.680;20.074;2022-10-16T16:15:15;16.15;;;10.25;;
34204;SDS011;20471;49.680;20.074;2022-10-16T16:17:42;14.13;;;10.38;;
34204;SDS011;20471;49.680;20.074;2022-10-16T16:20:09;13.93;;;9.75;;
34204;SDS011;20471;49.680;20.074;2022-10-16T16:22:37;12.20;;;9.70;;
34204;SDS011;20471;49.680;20.074;2022-10-16T16:25:03;14.85;;;10.32;;
34204;SDS011;20471;49.680;20.074;2022-10-16T16:27:31;10.98;;;9.73;;
34204;SDS011;20471;49.680;20.074;2022-10-16T16:30:00;13.85;;;10.32;;
34204;SDS011;20471;49.680;20.074;2022-10-16T16:32:29;14.00;;;9.85;;
34204;SDS011;20471;49.680;20.074;2022-10-16T16:34:56;15.70;;;11.20;;
34204;SDS011;20471;49.680;20.074;2022-10-16T16:37:22;13.18;;;10.25;;
34204;SDS011;20471;49.680;20.074;2022-10-16T16:39:49;13.38;;;9.98;;
34204;SDS011;20471;49.680;20.074;2022-10-16T16:42:16;14.75;;;10.80;;
34204;SDS011;20471;49.680;20.074;2022-10-16T16:44:43;13.28;;;10.70;;
34204;SDS011;20471;49.680;20.074;2022-10-16T16:47:09;13.05;;;10.98;;
34204;SDS011;20471;49.680;20.074;2022-10-16T16:49:36;13.75;;;10.13;;
34204;SDS011;20471;49.680;20.074;2022-10-16T16:52:03;13.65;;;11.25;;
34204;SDS011;20471;49.680;20.074;2022-10-16T16:54:30;15.58;;;11.10;;
34204;SDS011;20471;49.680;20.074;2022-10-16T16:56:56;13.43;;;10.63;;